Whiteclay, Nebraska
Current Conditions -  °F | °C
As of 9:52 AM on Friday 31 Oct 2014 (Local Time) from KIEN Reporting Station
Few Clouds Few Clouds  
Wind Chill: 27°   Ceiling: Unl
Heat Index: 34°   Visibility: 10mi
Dew Point: 28°   Wind: 9mph
Humidity: 79%   Direction: 170°S
Pressure: 30.39"   Gusts: NA
Location:  43°N, 102.56°W
Report Text: KIEN 311552Z AUTO 17008KT 10SM FEW011 01/M02 A3039 RMK AO2 SLP322 T00111022
Loading
Personal Weather Stations






























Interactive Weather Map
Tropical Storm Tracking
New forecast layout! Learn more

10-Day Weather Forecast

Advertisements
Track Severe Weather on mobile